CYEG/YEG METAR and TAF weather

Enter ICAO airport designator
Station Type Date Time Source
CYEG METAR 2020/09/23 00:00 UTC NOAA

CYEG 230000Z 15010KT 20SM FEW140 FEW250 18/05 A2998 RMK AC1CI1 AC TR CI TR SLP165 DENSITY ALT 3200FT


Station Type Date Time Source
CYEG Decoded METAR 2020/09/23 00:00 UTC NOAA

Edmonton International, Alta., Canada (CYEG) 53-18N 113-35W 723M
Sep 22, 2020 - 08:00 PM EDT / 2020.09.23 0000 UTC
Wind: from the SSE (150 degrees) at 12 MPH (10 KT):0
Visibility: 20 mile(s):0
Sky conditions: mostly clear
Temperature: 64 F (18 C)
Dew Point: 41 F (5 C)
Relative Humidity: 42%
Pressure (altimeter): 29.98 in. Hg (1015 hPa)
ob: CYEG 230000Z 15010KT 20SM FEW140 FEW250 18/05 A2998 RMK AC1CI1 AC TR CI TR SLP165 DENSITY ALT 3200FT
cycle: 0

Station Type Date Time Source
CYEG TAF 2020/09/22 21:42 UTC NOAA

TAF TAF CYEG 222038Z 2221/2318 16010KT P6SM FEW050 FEW250
FM231200 15010KT P6SM SCT008
TEMPO 2312/2317 BKN008
FM231700 15010KT P6SM SKC
RMK NXT FCST BY 230000Z

Example: see airport list